Thunder radar more information blitzortung!


Radar de pluja more information rain snow radar


Visita la nostra xarxa de llocs de meteo:

Template documentation
and downloads

And another site



No particular awareness of the weather is required.    There are no Weather-warnings

Pagina Historial Weather Underground text

Diari Resum Juny 26, 2017 Unitats:  Tant    Imperial   Mètric
« Previous Dia
SegĂźent Dia »
Diari Setmana Mensual Anual Personalitzada
  Maxima: Minima: Media:
Temperatura: 94.3 °F /  34.6 °C 68.7 °F /  20.4 °C 83.3 °F /  28.5 °C
Punt de rosada: 66 °F /  18.9 °C 49.3 °F /  9.6 °C 56.8 °F /  13.8 °C
Humitat: 86 % 25 % 44 %
Wind Speed: 17.3 mph /  27.8 km/h - 4.5 mph /  7.2 km/h
RĂ fegues de vent: 17.3 mph /  27.8 km/h - -
Vent:- - South
Pression baro: 29.9 in /  1012.8 hPa 29.7 in /  1006.0 hPa -
Precipitacions: 0 in /  0.0 mm    
Historical Graphs
 
 
Dades de taula per Juny 26, 2017
Temps Temperatura Punt de rosada Pression baro Vent Wind Speed RĂ fegues de vent Humitat Rainfall Rate (Hourly)
00:00 70 °F /  21.1 °C 65.7 °F /  18.7 °C 29.9 in /  1011.7 hPa Calm   1 mph /  1.6 km/h 86 % 0 in /  0.0 mm
00:01 73.8 °F /  23.2 °C 66 °F /  18.9 °C 29.9 in /  1012.8 hPa ENE 2.3 mph /  3.7 km/h 2.3 mph /  3.7 km/h 77 % 0 in /  0.0 mm
00:10 70 °F /  21.1 °C 65.3 °F /  18.5 °C 29.9 in /  1011.7 hPa SSW 2 mph /  3.2 km/h 3 mph /  4.8 km/h 85 % 0 in /  0.0 mm
00:20 69.6 °F /  20.9 °C 64.9 °F /  18.3 °C 29.9 in /  1011.7 hPa SW 1 mph /  1.6 km/h 2 mph /  3.2 km/h 85 % 0 in /  0.0 mm
00:30 69.4 °F /  20.8 °C 64.8 °F /  18.2 °C 29.9 in /  1011.7 hPa WSW 2 mph /  3.2 km/h 3 mph /  4.8 km/h 85 % 0 in /  0.0 mm
00:40 69.4 °F /  20.8 °C 64.8 °F /  18.2 °C 29.9 in /  1012.8 hPa WSW 1 mph /  1.6 km/h 2 mph /  3.2 km/h 85 % 0 in /  0.0 mm
00:50 69.4 °F /  20.8 °C 64.8 °F /  18.2 °C 29.9 in /  1012.8 hPa Calm     85 % 0 in /  0.0 mm
01:00 69.4 °F /  20.8 °C 64.8 °F /  18.2 °C 29.9 in /  1011.7 hPa WSW 1 mph /  1.6 km/h 2 mph /  3.2 km/h 85 % 0 in /  0.0 mm
01:10 69.4 °F /  20.8 °C 64.8 °F /  18.2 °C 29.9 in /  1011.7 hPa SW 1 mph /  1.6 km/h 2 mph /  3.2 km/h 85 % 0 in /  0.0 mm
01:20 69.4 °F /  20.8 °C 65.1 °F /  18.4 °C 29.9 in /  1011.7 hPa SW 1 mph /  1.6 km/h 2 mph /  3.2 km/h 86 % 0 in /  0.0 mm
01:30 69.4 °F /  20.8 °C 64.8 °F /  18.2 °C 29.9 in /  1011.7 hPa NE 1 mph /  1.6 km/h 3 mph /  4.8 km/h 85 % 0 in /  0.0 mm
01:40 69.3 °F /  20.7 °C 64.2 °F /  17.9 °C 29.8 in /  1010.7 hPa Calm   1 mph /  1.6 km/h 84 % 0 in /  0.0 mm
01:50 68.9 °F /  20.5 °C 63.9 °F /  17.7 °C 29.8 in /  1010.7 hPa West 1 mph /  1.6 km/h 3 mph /  4.8 km/h 84 % 0 in /  0.0 mm
02:00 68.7 °F /  20.4 °C 63.3 °F /  17.4 °C 29.9 in /  1011.7 hPa West 1 mph /  1.6 km/h 3 mph /  4.8 km/h 83 % 0 in /  0.0 mm
02:10 68.9 °F /  20.5 °C 63.5 °F /  17.5 °C 29.8 in /  1010.0 hPa NE 7 mph /  11.3 km/h 7 mph /  11.3 km/h 83 % 0 in /  0.0 mm
02:20 69.3 °F /  20.7 °C 64.2 °F /  17.9 °C 29.8 in /  1010.0 hPa NE 2 mph /  3.2 km/h 9 mph /  14.5 km/h 84 % 0 in /  0.0 mm
02:30 69.1 °F /  20.6 °C 64 °F /  17.8 °C 29.8 in /  1009.0 hPa ENE 1 mph /  1.6 km/h 4 mph /  6.4 km/h 84 % 0 in /  0.0 mm
02:40 69.1 °F /  20.6 °C 64 °F /  17.8 °C 29.8 in /  1010.0 hPa WNW 2 mph /  3.2 km/h 2 mph /  3.2 km/h 84 % 0 in /  0.0 mm
02:50 69.3 °F /  20.7 °C 63.9 °F /  17.7 °C 29.8 in /  1010.0 hPa WSW 2 mph /  3.2 km/h 3 mph /  4.8 km/h 83 % 0 in /  0.0 mm
03:00 69.3 °F /  20.7 °C 63.9 °F /  17.7 °C 29.8 in /  1010.0 hPa SW 1 mph /  1.6 km/h 3 mph /  4.8 km/h 83 % 0 in /  0.0 mm
03:10 69.1 °F /  20.6 °C 63.3 °F /  17.4 °C 29.9 in /  1011.7 hPa SW 3 mph /  4.8 km/h 4 mph /  6.4 km/h 82 % 0 in /  0.0 mm
03:20 69.3 °F /  20.7 °C 63.1 °F /  17.3 °C 29.9 in /  1011.7 hPa SSW 6 mph /  9.7 km/h 6 mph /  9.7 km/h 81 % 0 in /  0.0 mm
03:30 69.3 °F /  20.7 °C 63.1 °F /  17.3 °C 29.9 in /  1011.7 hPa SW 2 mph /  3.2 km/h 4 mph /  6.4 km/h 81 % 0 in /  0.0 mm
03:40 69.3 °F /  20.7 °C 62.8 °F /  17.1 °C 29.8 in /  1010.7 hPa Calm   4 mph /  6.4 km/h 80 % 0 in /  0.0 mm
03:50 69.6 °F /  20.9 °C 62.8 °F /  17.1 °C 29.8 in /  1010.7 hPa NE 1 mph /  1.6 km/h 1 mph /  1.6 km/h 79 % 0 in /  0.0 mm
04:00 70.2 °F /  21.2 °C 63 °F /  17.2 °C 29.9 in /  1011.7 hPa NE 2 mph /  3.2 km/h 4 mph /  6.4 km/h 78 % 0 in /  0.0 mm
04:10 71.4 °F /  21.9 °C 64.2 °F /  17.9 °C 29.8 in /  1010.7 hPa NNE 5 mph /  8.0 km/h 6 mph /  9.7 km/h 78 % 0 in /  0.0 mm
04:20 72.9 °F /  22.7 °C 65.1 °F /  18.4 °C 29.8 in /  1010.7 hPa NE 5 mph /  8.0 km/h 8 mph /  12.9 km/h 77 % 0 in /  0.0 mm
04:30 74.1 °F /  23.4 °C 65.7 °F /  18.7 °C 29.9 in /  1011.7 hPa NE 3 mph /  4.8 km/h 5 mph /  8.0 km/h 75 % 0 in /  0.0 mm
04:40 75.2 °F /  24.0 °C 65.8 °F /  18.8 °C 29.8 in /  1009.0 hPa NE 3 mph /  4.8 km/h 5 mph /  8.0 km/h 73 % 0 in /  0.0 mm
04:50 75.6 °F /  24.2 °C 64.8 °F /  18.2 °C 29.8 in /  1009.0 hPa NE 5 mph /  8.0 km/h 8 mph /  12.9 km/h 69 % 0 in /  0.0 mm
05:00 75.6 °F /  24.2 °C 63.9 °F /  17.7 °C 29.8 in /  1010.0 hPa NE 6 mph /  9.7 km/h 9 mph /  14.5 km/h 67 % 0 in /  0.0 mm
05:10 76.8 °F /  24.9 °C 64.6 °F /  18.1 °C 29.8 in /  1010.0 hPa NE 3 mph /  4.8 km/h 5 mph /  8.0 km/h 66 % 0 in /  0.0 mm
05:20 78.4 °F /  25.8 °C 63.9 °F /  17.7 °C 29.8 in /  1010.0 hPa NE 3 mph /  4.8 km/h 5 mph /  8.0 km/h 61 % 0 in /  0.0 mm
05:30 79.7 °F /  26.5 °C 63.7 °F /  17.6 °C 29.8 in /  1009.0 hPa NE 3 mph /  4.8 km/h 5 mph /  8.0 km/h 58 % 0 in /  0.0 mm
10:31 80.8 °F /  27.1 °C 62.6 °F /  17.0 °C 29.8 in /  1008.0 hPa NE 4 mph /  6.4 km/h 4 mph /  6.4 km/h 54 % 0 in /  0.0 mm
10:36 81.7 °F /  27.6 °C 61.2 °F /  16.2 °C 29.8 in /  1008.0 hPa NNE 8.1 mph /  13.0 km/h 8.1 mph /  13.0 km/h 50 % 0 in /  0.0 mm
10:41 81.5 °F /  27.5 °C 60.4 °F /  15.8 °C 29.8 in /  1008.0 hPa NNW 10.5 mph /  16.9 km/h 10.5 mph /  16.9 km/h 49 % 0 in /  0.0 mm
10:46 81.7 °F /  27.6 °C 60.6 °F /  15.9 °C 29.8 in /  1008.0 hPa NE 5.4 mph /  8.7 km/h 5.4 mph /  8.7 km/h 49 % 0 in /  0.0 mm
10:51 81.9 °F /  27.7 °C 61.3 °F /  16.3 °C 29.8 in /  1008.0 hPa NE 6 mph /  9.7 km/h 6 mph /  9.7 km/h 50 % 0 in /  0.0 mm
10:56 82.8 °F /  28.2 °C 62.2 °F /  16.8 °C 29.8 in /  1008.0 hPa NE 3.5 mph /  5.6 km/h 3.5 mph /  5.6 km/h 50 % 0 in /  0.0 mm
11:01 82.4 °F /  28.0 °C 61.3 °F /  16.3 °C 29.8 in /  1008.0 hPa NNE 9.2 mph /  14.8 km/h 9.2 mph /  14.8 km/h 49 % 0 in /  0.0 mm
11:06 83.1 °F /  28.4 °C 62.1 °F /  16.7 °C 29.8 in /  1008.0 hPa NNE 6.4 mph /  10.3 km/h 6.4 mph /  10.3 km/h 49 % 0 in /  0.0 mm
11:11 83.3 °F /  28.5 °C 62.1 °F /  16.7 °C 29.8 in /  1008.0 hPa East 5.8 mph /  9.3 km/h 5.8 mph /  9.3 km/h 49 % 0 in /  0.0 mm
11:17 82.9 °F /  28.3 °C 61.2 °F /  16.2 °C 29.7 in /  1007.0 hPa ENE 5.8 mph /  9.3 km/h 5.8 mph /  9.3 km/h 48 % 0 in /  0.0 mm
11:22 82.6 °F /  28.1 °C 61 °F /  16.1 °C 29.7 in /  1007.0 hPa NNE 5.8 mph /  9.3 km/h 5.8 mph /  9.3 km/h 48 % 0 in /  0.0 mm
11:27 83.8 °F /  28.8 °C 62.1 °F /  16.7 °C 29.8 in /  1008.0 hPa NNE 5.8 mph /  9.3 km/h 5.8 mph /  9.3 km/h 48 % 0 in /  0.0 mm
11:32 83.7 °F /  28.7 °C 61.9 °F /  16.6 °C 29.8 in /  1008.0 hPa NNE 3.6 mph /  5.8 km/h 3.6 mph /  5.8 km/h 48 % 0 in /  0.0 mm
11:37 83.3 °F /  28.5 °C 61.5 °F /  16.4 °C 29.8 in /  1008.0 hPa East 5.8 mph /  9.3 km/h 5.8 mph /  9.3 km/h 48 % 0 in /  0.0 mm
11:42 84.4 °F /  29.1 °C 61.9 °F /  16.6 °C 29.8 in /  1008.0 hPa NNE 4 mph /  6.4 km/h 4 mph /  6.4 km/h 47 % 0 in /  0.0 mm
11:47 84.4 °F /  29.1 °C 61.3 °F /  16.3 °C 29.8 in /  1008.0 hPa ENE 3.5 mph /  5.6 km/h 3.5 mph /  5.6 km/h 46 % 0 in /  0.0 mm
11:52 85.3 °F /  29.6 °C 62.8 °F /  17.1 °C 29.8 in /  1008.0 hPa West 2.3 mph /  3.7 km/h 2.3 mph /  3.7 km/h 47 % 0 in /  0.0 mm
11:57 86 °F /  30.0 °C 63.3 °F /  17.4 °C 29.8 in /  1008.0 hPa NW 2.4 mph /  3.9 km/h 2.6 mph /  4.2 km/h 47 % 0 in /  0.0 mm
12:02 86.5 °F /  30.3 °C 62.8 °F /  17.1 °C 29.8 in /  1008.0 hPa SSE 3.5 mph /  5.6 km/h 3.5 mph /  5.6 km/h 45 % 0 in /  0.0 mm
12:07 87.1 °F /  30.6 °C 62.4 °F /  16.9 °C 29.8 in /  1008.0 hPa ESE 4.6 mph /  7.4 km/h 4.6 mph /  7.4 km/h 44 % 0 in /  0.0 mm
12:12 86.7 °F /  30.4 °C 61 °F /  16.1 °C 29.8 in /  1008.0 hPa SE 4.6 mph /  7.4 km/h 4.6 mph /  7.4 km/h 42 % 0 in /  0.0 mm
12:17 87.6 °F /  30.9 °C 59.5 °F /  15.3 °C 29.8 in /  1008.0 hPa ESE 3.1 mph /  5.0 km/h 3.1 mph /  5.0 km/h 39 % 0 in /  0.0 mm
12:22 87.1 °F /  30.6 °C 60.4 °F /  15.8 °C 29.8 in /  1008.0 hPa WSW 3.5 mph /  5.6 km/h 3.5 mph /  5.6 km/h 41 % 0 in /  0.0 mm
12:23 87.1 °F /  30.6 °C 60.4 °F /  15.8 °C 29.8 in /  1008.0 hPa WSW 3.5 mph /  5.6 km/h 3.5 mph /  5.6 km/h 41 % 0 in /  0.0 mm
12:28 87.8 °F /  31.0 °C 60.4 °F /  15.8 °C 29.8 in /  1008.0 hPa SSW 0.9 mph /  1.4 km/h   40 % 0 in /  0.0 mm
12:33 87.8 °F /  31.0 °C 59 °F /  15.0 °C 29.8 in /  1008.0 hPa ESE 3.5 mph /  5.6 km/h 3.5 mph /  5.6 km/h 38 % 0 in /  0.0 mm
12:38 88 °F /  31.1 °C 57.7 °F /  14.3 °C 29.8 in /  1008.0 hPa South 3.5 mph /  5.6 km/h 3.5 mph /  5.6 km/h 36 % 0 in /  0.0 mm
12:43 89.8 °F /  32.1 °C 60.8 °F /  16.0 °C 29.7 in /  1007.0 hPa East 1.6 mph /  2.6 km/h   38 % 0 in /  0.0 mm
12:48 88.2 °F /  31.2 °C 58.6 °F /  14.8 °C 29.7 in /  1007.0 hPa ENE 3.5 mph /  5.6 km/h 3.5 mph /  5.6 km/h 37 % 0 in /  0.0 mm
12:53 88.2 °F /  31.2 °C 59.4 °F /  15.2 °C 29.7 in /  1007.0 hPa NNE 4.6 mph /  7.4 km/h 4.6 mph /  7.4 km/h 38 % 0 in /  0.0 mm
12:58 88.7 °F /  31.5 °C 59.2 °F /  15.1 °C 29.8 in /  1008.0 hPa ESE 5.8 mph /  9.3 km/h 5.8 mph /  9.3 km/h 37 % 0 in /  0.0 mm
13:03 88.7 °F /  31.5 °C 58.3 °F /  14.6 °C 29.8 in /  1008.0 hPa NE 6.9 mph /  11.1 km/h 6.9 mph /  11.1 km/h 36 % 0 in /  0.0 mm
13:08 88.3 °F /  31.3 °C 57.2 °F /  14.0 °C 29.8 in /  1008.0 hPa SE 9.2 mph /  14.8 km/h 9.2 mph /  14.8 km/h 35 % 0 in /  0.0 mm
13:13 88 °F /  31.1 °C 54.3 °F /  12.4 °C 29.8 in /  1008.0 hPa SSE 12.7 mph /  20.4 km/h 12.7 mph /  20.4 km/h 32 % 0 in /  0.0 mm
13:18 88.7 °F /  31.5 °C 55 °F /  12.8 °C 29.8 in /  1008.0 hPa SE 5.8 mph /  9.3 km/h 8.1 mph /  13.0 km/h 32 % 0 in /  0.0 mm
13:23 88.7 °F /  31.5 °C 54.1 °F /  12.3 °C 29.8 in /  1008.0 hPa ESE 11.8 mph /  19.0 km/h 11.8 mph /  19.0 km/h 31 % 0 in /  0.0 mm
13:28 89.8 °F /  32.1 °C 55.9 °F /  13.3 °C 29.8 in /  1008.0 hPa SSW 6.9 mph /  11.1 km/h 6.9 mph /  11.1 km/h 32 % 0 in /  0.0 mm
13:33 90.1 °F /  32.3 °C 57.2 °F /  14.0 °C 29.8 in /  1008.0 hPa SSE 8.1 mph /  13.0 km/h 8.1 mph /  13.0 km/h 33 % 0 in /  0.0 mm
13:38 89.6 °F /  32.0 °C 58.3 °F /  14.6 °C 29.8 in /  1008.0 hPa East 9.2 mph /  14.8 km/h 9.2 mph /  14.8 km/h 35 % 0 in /  0.0 mm
13:43 88.3 °F /  31.3 °C 56.5 °F /  13.6 °C 29.8 in /  1008.0 hPa ESE 17.3 mph /  27.8 km/h 17.3 mph /  27.8 km/h 34 % 0 in /  0.0 mm
13:48 89.1 °F /  31.7 °C 56.1 °F /  13.4 °C 29.8 in /  1008.0 hPa SE 5.8 mph /  9.3 km/h 5.8 mph /  9.3 km/h 33 % 0 in /  0.0 mm
13:53 89.4 °F /  31.9 °C 55.8 °F /  13.2 °C 29.8 in /  1008.0 hPa ESE 7.8 mph /  12.6 km/h 7.8 mph /  12.6 km/h 32 % 0 in /  0.0 mm
13:58 89.6 °F /  32.0 °C 55.8 °F /  13.2 °C 29.8 in /  1008.0 hPa SW 6.9 mph /  11.1 km/h 6.9 mph /  11.1 km/h 32 % 0 in /  0.0 mm
14:03 90.3 °F /  32.4 °C 56.5 °F /  13.6 °C 29.8 in /  1008.0 hPa SSE 10.4 mph /  16.7 km/h 10.4 mph /  16.7 km/h 32 % 0 in /  0.0 mm
14:08 89.1 °F /  31.7 °C 55.4 °F /  13.0 °C 29.8 in /  1008.0 hPa ESE 10.4 mph /  16.7 km/h 10.4 mph /  16.7 km/h 32 % 0 in /  0.0 mm
14:13 88.3 °F /  31.3 °C 54 °F /  12.2 °C 29.8 in /  1008.0 hPa ESE 11.5 mph /  18.5 km/h 11.5 mph /  18.5 km/h 31 % 0 in /  0.0 mm
14:18 89.2 °F /  31.8 °C 54.7 °F /  12.6 °C 29.8 in /  1008.0 hPa East 8.1 mph /  13.0 km/h 8.1 mph /  13.0 km/h 31 % 0 in /  0.0 mm
14:23 88.7 °F /  31.5 °C 54.1 °F /  12.3 °C 29.8 in /  1008.0 hPa NNE 9.7 mph /  15.6 km/h 9.7 mph /  15.6 km/h 31 % 0 in /  0.0 mm
14:28 89.4 °F /  31.9 °C 54.9 °F /  12.7 °C 29.8 in /  1008.0 hPa SSE 9.2 mph /  14.8 km/h 9.2 mph /  14.8 km/h 31 % 0 in /  0.0 mm
14:33 90 °F /  32.2 °C 54.3 °F /  12.4 °C 29.8 in /  1008.0 hPa South 5.9 mph /  9.5 km/h 5.9 mph /  9.5 km/h 30 % 0 in /  0.0 mm
14:38 91.2 °F /  32.9 °C 55.6 °F /  13.1 °C 29.8 in /  1008.0 hPa South 4.6 mph /  7.4 km/h 4.6 mph /  7.4 km/h 30 % 0 in /  0.0 mm
14:43 90.7 °F /  32.6 °C 55.9 °F /  13.3 °C 29.8 in /  1008.0 hPa SW 5.6 mph /  9.0 km/h 5.6 mph /  9.0 km/h 31 % 0 in /  0.0 mm
14:48 91.6 °F /  33.1 °C 54.9 °F /  12.7 °C 29.8 in /  1008.0 hPa SE 5.8 mph /  9.3 km/h 5.8 mph /  9.3 km/h 29 % 0 in /  0.0 mm
14:53 91 °F /  32.8 °C 55.2 °F /  12.9 °C 29.8 in /  1008.0 hPa South 5.8 mph /  9.3 km/h 5.8 mph /  9.3 km/h 30 % 0 in /  0.0 mm
14:58 91.2 °F /  32.9 °C 55.6 °F /  13.1 °C 29.8 in /  1008.0 hPa South 4.6 mph /  7.4 km/h 4.6 mph /  7.4 km/h 30 % 0 in /  0.0 mm
15:03 92.7 °F /  33.7 °C 55.8 °F /  13.2 °C 29.8 in /  1008.0 hPa SW 6.9 mph /  11.1 km/h 6.9 mph /  11.1 km/h 29 % 0 in /  0.0 mm
15:08 92.3 °F /  33.5 °C 55.4 °F /  13.0 °C 29.8 in /  1008.0 hPa WSW 5.8 mph /  9.3 km/h 5.8 mph /  9.3 km/h 29 % 0 in /  0.0 mm
15:13 92.5 °F /  33.6 °C 55.6 °F /  13.1 °C 29.8 in /  1008.0 hPa West 6.9 mph /  11.1 km/h 6.9 mph /  11.1 km/h 29 % 0 in /  0.0 mm
15:18 92.3 °F /  33.5 °C 55.4 °F /  13.0 °C 29.8 in /  1008.0 hPa South 8.1 mph /  13.0 km/h 8.1 mph /  13.0 km/h 29 % 0 in /  0.0 mm
15:23 91.8 °F /  33.2 °C 55 °F /  12.8 °C 29.8 in /  1008.0 hPa SSW 6.9 mph /  11.1 km/h 6.9 mph /  11.1 km/h 29 % 0 in /  0.0 mm
15:28 91 °F /  32.8 °C 53.4 °F /  11.9 °C 29.8 in /  1008.0 hPa SW 7.6 mph /  12.2 km/h 7.6 mph /  12.2 km/h 28 % 0 in /  0.0 mm
15:33 90.5 °F /  32.5 °C 52.9 °F /  11.6 °C 29.8 in /  1008.0 hPa SSE 5.8 mph /  9.3 km/h 5.8 mph /  9.3 km/h 28 % 0 in /  0.0 mm
15:38 91.2 °F /  32.9 °C 53.6 °F /  12.0 °C 29.8 in /  1008.0 hPa SSW 8.1 mph /  13.0 km/h 8.1 mph /  13.0 km/h 28 % 0 in /  0.0 mm
15:43 91.2 °F /  32.9 °C 53.6 °F /  12.0 °C 29.8 in /  1008.0 hPa SSE 10.4 mph /  16.7 km/h 10.4 mph /  16.7 km/h 28 % 0 in /  0.0 mm
15:48 91 °F /  32.8 °C 53.4 °F /  11.9 °C 29.8 in /  1008.0 hPa SW 6.9 mph /  11.1 km/h 6.9 mph /  11.1 km/h 28 % 0 in /  0.0 mm
15:53 91.6 °F /  33.1 °C 54 °F /  12.2 °C 29.8 in /  1008.0 hPa SW 4.6 mph /  7.4 km/h 4.6 mph /  7.4 km/h 28 % 0 in /  0.0 mm
15:58 92.1 °F /  33.4 °C 54.3 °F /  12.4 °C 29.8 in /  1008.0 hPa WSW 5.8 mph /  9.3 km/h 5.8 mph /  9.3 km/h 28 % 0 in /  0.0 mm
16:03 91.8 °F /  33.2 °C 54 °F /  12.2 °C 29.8 in /  1008.0 hPa South 3.5 mph /  5.6 km/h 3.5 mph /  5.6 km/h 28 % 0 in /  0.0 mm
16:08 91.9 °F /  33.3 °C 54.1 °F /  12.3 °C 29.8 in /  1008.0 hPa WSW 4.6 mph /  7.4 km/h 4.6 mph /  7.4 km/h 28 % 0 in /  0.0 mm
16:13 92.1 °F /  33.4 °C 53.2 °F /  11.8 °C 29.8 in /  1008.0 hPa South 5.4 mph /  8.7 km/h 5.4 mph /  8.7 km/h 27 % 0 in /  0.0 mm
16:18 93 °F /  33.9 °C 54.1 °F /  12.3 °C 29.8 in /  1008.0 hPa SW 4.6 mph /  7.4 km/h 4.6 mph /  7.4 km/h 27 % 0 in /  0.0 mm
16:23 93.2 °F /  34.0 °C 54.3 °F /  12.4 °C 29.8 in /  1008.0 hPa West 4.6 mph /  7.4 km/h 4.6 mph /  7.4 km/h 27 % 0 in /  0.0 mm
16:28 93 °F /  33.9 °C 54.1 °F /  12.3 °C 29.7 in /  1007.0 hPa SW 9.2 mph /  14.8 km/h 9.2 mph /  14.8 km/h 27 % 0 in /  0.0 mm
16:33 93.4 °F /  34.1 °C 54.3 °F /  12.4 °C 29.7 in /  1007.0 hPa SW 4.6 mph /  7.4 km/h 4.6 mph /  7.4 km/h 27 % 0 in /  0.0 mm
16:38 93.4 °F /  34.1 °C 54.3 °F /  12.4 °C 29.7 in /  1007.0 hPa WSW 9.2 mph /  14.8 km/h 9.2 mph /  14.8 km/h 27 % 0 in /  0.0 mm
16:43 92.5 °F /  33.6 °C 53.6 °F /  12.0 °C 29.7 in /  1007.0 hPa WSW 4.6 mph /  7.4 km/h 4.6 mph /  7.4 km/h 27 % 0 in /  0.0 mm
16:48 93 °F /  33.9 °C 53.1 °F /  11.7 °C 29.7 in /  1007.0 hPa WSW 4.6 mph /  7.4 km/h 4.6 mph /  7.4 km/h 26 % 0 in /  0.0 mm
16:53 94.3 °F /  34.6 °C 55.2 °F /  12.9 °C 29.7 in /  1007.0 hPa South 3.5 mph /  5.6 km/h 3.5 mph /  5.6 km/h 27 % 0 in /  0.0 mm
16:58 93.6 °F /  34.2 °C 53.4 °F /  11.9 °C 29.7 in /  1007.0 hPa ESE 2.3 mph /  3.7 km/h 2.3 mph /  3.7 km/h 26 % 0 in /  0.0 mm
17:03 93.6 °F /  34.2 °C 53.4 °F /  11.9 °C 29.7 in /  1007.0 hPa SSE 2.3 mph /  3.7 km/h 2.3 mph /  3.7 km/h 26 % 0 in /  0.0 mm
17:08 94.1 °F /  34.5 °C 54 °F /  12.2 °C 29.7 in /  1007.0 hPa South 4.6 mph /  7.4 km/h 4.6 mph /  7.4 km/h 26 % 0 in /  0.0 mm
17:13 92.1 °F /  33.4 °C 52.3 °F /  11.3 °C 29.7 in /  1007.0 hPa ESE 5.8 mph /  9.3 km/h 5.8 mph /  9.3 km/h 26 % 0 in /  0.0 mm
17:18 91.2 °F /  32.9 °C 51.4 °F /  10.8 °C 29.7 in /  1007.0 hPa ENE 5.8 mph /  9.3 km/h 5.8 mph /  9.3 km/h 26 % 0 in /  0.0 mm
17:23 90.5 °F /  32.5 °C 50.9 °F /  10.5 °C 29.7 in /  1007.0 hPa SW 10.4 mph /  16.7 km/h 10.4 mph /  16.7 km/h 26 % 0 in /  0.0 mm
17:28 90.7 °F /  32.6 °C 51.1 °F /  10.6 °C 29.7 in /  1007.0 hPa SE 8.1 mph /  13.0 km/h 8.1 mph /  13.0 km/h 26 % 0 in /  0.0 mm
17:33 91.2 °F /  32.9 °C 51.4 °F /  10.8 °C 29.7 in /  1007.0 hPa East 5.8 mph /  9.3 km/h 5.8 mph /  9.3 km/h 26 % 0 in /  0.0 mm
17:38 90.7 °F /  32.6 °C 50 °F /  10.0 °C 29.7 in /  1007.0 hPa SSE 5.8 mph /  9.3 km/h 5.8 mph /  9.3 km/h 25 % 0 in /  0.0 mm
17:43 90.3 °F /  32.4 °C 50.7 °F /  10.4 °C 29.7 in /  1007.0 hPa ESE 6.2 mph /  10.0 km/h 6.2 mph /  10.0 km/h 26 % 0 in /  0.0 mm
17:48 89.8 °F /  32.1 °C 49.3 °F /  9.6 °C 29.7 in /  1007.0 hPa SE 6 mph /  9.7 km/h 6 mph /  9.7 km/h 25 % 0 in /  0.0 mm
17:53 90.3 °F /  32.4 °C 49.6 °F /  9.8 °C 29.7 in /  1007.0 hPa SSW 5.8 mph /  9.3 km/h 5.8 mph /  9.3 km/h 25 % 0 in /  0.0 mm
17:58 91 °F /  32.8 °C 50.4 °F /  10.2 °C 29.7 in /  1006.0 hPa SSW 4.6 mph /  7.4 km/h 4.6 mph /  7.4 km/h 25 % 0 in /  0.0 mm
18:03 90.3 °F /  32.4 °C 50.7 °F /  10.4 °C 29.7 in /  1006.0 hPa East 5.8 mph /  9.3 km/h 5.8 mph /  9.3 km/h 26 % 0 in /  0.0 mm
18:08 89.8 °F /  32.1 °C 49.3 °F /  9.6 °C 29.7 in /  1006.0 hPa ESE 4.3 mph /  6.9 km/h 4.3 mph /  6.9 km/h 25 % 0 in /  0.0 mm
18:13 90.1 °F /  32.3 °C 49.6 °F /  9.8 °C 29.7 in /  1006.0 hPa East 4.6 mph /  7.4 km/h 4.6 mph /  7.4 km/h 25 % 0 in /  0.0 mm
18:18 90 °F /  32.2 °C 49.5 °F /  9.7 °C 29.7 in /  1006.0 hPa East 5.8 mph /  9.3 km/h 5.8 mph /  9.3 km/h 25 % 0 in /  0.0 mm
18:23 90.5 °F /  32.5 °C 50.9 °F /  10.5 °C 29.7 in /  1006.0 hPa SW 5.8 mph /  9.3 km/h 5.8 mph /  9.3 km/h 26 % 0 in /  0.0 mm
18:28 91.2 °F /  32.9 °C 51.4 °F /  10.8 °C 29.7 in /  1006.0 hPa SSE 4.6 mph /  7.4 km/h 4.6 mph /  7.4 km/h 26 % 0 in /  0.0 mm
18:33 91 °F /  32.8 °C 51.4 °F /  10.8 °C 29.7 in /  1006.0 hPa South 3.5 mph /  5.6 km/h 3.5 mph /  5.6 km/h 26 % 0 in /  0.0 mm
18:38 91.6 °F /  33.1 °C 50.7 °F /  10.4 °C 29.7 in /  1006.0 hPa SW 4.6 mph /  7.4 km/h 4.6 mph /  7.4 km/h 25 % 0 in /  0.0 mm
18:43 90.9 °F /  32.7 °C 51.3 °F /  10.7 °C 29.7 in /  1006.0 hPa SSW 3.5 mph /  5.6 km/h 3.5 mph /  5.6 km/h 26 % 0 in /  0.0 mm
18:48 90.9 °F /  32.7 °C 51.3 °F /  10.7 °C 29.7 in /  1006.0 hPa SW 3.5 mph /  5.6 km/h 3.5 mph /  5.6 km/h 26 % 0 in /  0.0 mm
18:53 90.3 °F /  32.4 °C 50.7 °F /  10.4 °C 29.7 in /  1006.0 hPa SW 5.9 mph /  9.5 km/h 5.9 mph /  9.5 km/h 26 % 0 in /  0.0 mm
18:58 90 °F /  32.2 °C 50.5 °F /  10.3 °C 29.7 in /  1006.0 hPa WSW 5.8 mph /  9.3 km/h 5.8 mph /  9.3 km/h 26 % 0 in /  0.0 mm
19:03 89.2 °F /  31.8 °C 49.8 °F /  9.9 °C 29.7 in /  1006.0 hPa SW 8.1 mph /  13.0 km/h 8.1 mph /  13.0 km/h 26 % 0 in /  0.0 mm
19:08 88.7 °F /  31.5 °C 50.4 °F /  10.2 °C 29.7 in /  1006.0 hPa SSW 6 mph /  9.7 km/h 6 mph /  9.7 km/h 27 % 0 in /  0.0 mm
19:13 88.5 °F /  31.4 °C 50.4 °F /  10.2 °C 29.7 in /  1006.0 hPa WSW 4.6 mph /  7.4 km/h 4.6 mph /  7.4 km/h 27 % 0 in /  0.0 mm
19:18 88.5 °F /  31.4 °C 50.4 °F /  10.2 °C 29.7 in /  1006.0 hPa SW 5.9 mph /  9.5 km/h 5.9 mph /  9.5 km/h 27 % 0 in /  0.0 mm
19:23 88.5 °F /  31.4 °C 50.4 °F /  10.2 °C 29.7 in /  1006.0 hPa SSW 4.6 mph /  7.4 km/h 4.6 mph /  7.4 km/h 27 % 0 in /  0.0 mm
19:28 88 °F /  31.1 °C 49.8 °F /  9.9 °C 29.7 in /  1006.0 hPa WSW 5.8 mph /  9.3 km/h 5.8 mph /  9.3 km/h 27 % 0 in /  0.0 mm
19:33 88 °F /  31.1 °C 49.8 °F /  9.9 °C 29.7 in /  1006.0 hPa WSW 9.8 mph /  15.8 km/h 9.8 mph /  15.8 km/h 27 % 0 in /  0.0 mm
19:38 87.8 °F /  31.0 °C 49.6 °F /  9.8 °C 29.7 in /  1006.0 hPa WSW 4.6 mph /  7.4 km/h 4.7 mph /  7.6 km/h 27 % 0 in /  0.0 mm
19:43 87.4 °F /  30.8 °C 49.3 °F /  9.6 °C 29.7 in /  1007.0 hPa SW 5.8 mph /  9.3 km/h 5.8 mph /  9.3 km/h 27 % 0 in /  0.0 mm
19:48 87.3 °F /  30.7 °C 50.2 °F /  10.1 °C 29.7 in /  1007.0 hPa SSW 5.8 mph /  9.3 km/h 5.8 mph /  9.3 km/h 28 % 0 in /  0.0 mm
19:53 87.1 °F /  30.6 °C 50 °F /  10.0 °C 29.7 in /  1007.0 hPa South 6.9 mph /  11.1 km/h 6.9 mph /  11.1 km/h 28 % 0 in /  0.0 mm
19:58 86.9 °F /  30.5 °C 49.8 °F /  9.9 °C 29.7 in /  1006.0 hPa SW 3.5 mph /  5.6 km/h 3.5 mph /  5.6 km/h 28 % 0 in /  0.0 mm
20:03 86.5 °F /  30.3 °C 49.6 °F /  9.8 °C 29.7 in /  1006.0 hPa SSW 6.2 mph /  10.0 km/h 6.2 mph /  10.0 km/h 28 % 0 in /  0.0 mm
20:08 86.2 °F /  30.1 °C 49.3 °F /  9.6 °C 29.7 in /  1006.0 hPa SSW 4.6 mph /  7.4 km/h 4.6 mph /  7.4 km/h 28 % 0 in /  0.0 mm
20:13 85.8 °F /  29.9 °C 49.8 °F /  9.9 °C 29.7 in /  1007.0 hPa WSW 5.8 mph /  9.3 km/h 5.8 mph /  9.3 km/h 29 % 0 in /  0.0 mm
20:18 85.5 °F /  29.7 °C 49.6 °F /  9.8 °C 29.7 in /  1007.0 hPa SW 5.8 mph /  9.3 km/h 5.9 mph /  9.5 km/h 29 % 0 in /  0.0 mm
20:19 85.5 °F /  29.7 °C 50.5 °F /  10.3 °C 29.7 in /  1007.0 hPa SSW 6.9 mph /  11.1 km/h 6.9 mph /  11.1 km/h 30 % 0 in /  0.0 mm
20:24 84.9 °F /  29.4 °C 50 °F /  10.0 °C 29.7 in /  1007.0 hPa SSW 5.8 mph /  9.3 km/h 5.8 mph /  9.3 km/h 30 % 0 in /  0.0 mm
20:29 84.7 °F /  29.3 °C 50.7 °F /  10.4 °C 29.7 in /  1007.0 hPa South 5.8 mph /  9.3 km/h 5.8 mph /  9.3 km/h 31 % 0 in /  0.0 mm
20:34 84.4 °F /  29.1 °C 50.4 °F /  10.2 °C 29.7 in /  1007.0 hPa SSW 6.9 mph /  11.1 km/h 6.9 mph /  11.1 km/h 31 % 0 in /  0.0 mm
20:39 83.8 °F /  28.8 °C 51.6 °F /  10.9 °C 29.7 in /  1007.0 hPa West 6.9 mph /  11.1 km/h 6.9 mph /  11.1 km/h 33 % 0 in /  0.0 mm
20:44 83.7 °F /  28.7 °C 52.3 °F /  11.3 °C 29.7 in /  1007.0 hPa ESE 3.3 mph /  5.3 km/h 3.3 mph /  5.3 km/h 34 % 0 in /  0.0 mm
20:49 83.5 °F /  28.6 °C 52.9 °F /  11.6 °C 29.7 in /  1007.0 hPa SW 1.2 mph /  1.9 km/h   35 % 0 in /  0.0 mm
20:51 83.3 °F /  28.5 °C 52.9 °F /  11.6 °C 29.7 in /  1007.0 hPa Calm     35 % 0 in /  0.0 mm
20:56 82.9 °F /  28.3 °C 52.5 °F /  11.4 °C 29.7 in /  1007.0 hPa SW 4.6 mph /  7.4 km/h 4.6 mph /  7.4 km/h 35 % 0 in /  0.0 mm
21:01 82.8 °F /  28.2 °C 53.1 °F /  11.7 °C 29.7 in /  1007.0 hPa WSW 3.8 mph /  6.1 km/h 3.8 mph /  6.1 km/h 36 % 0 in /  0.0 mm
21:05 82.4 °F /  28.0 °C 53.4 °F /  11.9 °C 29.7 in /  1007.0 hPa SW 3.5 mph /  5.6 km/h 3.5 mph /  5.6 km/h 37 % 0 in /  0.0 mm
21:11 82.2 °F /  27.9 °C 54.1 °F /  12.3 °C 29.7 in /  1007.0 hPa South 2.3 mph /  3.7 km/h 2.3 mph /  3.7 km/h 38 % 0 in /  0.0 mm
21:16 81.9 °F /  27.7 °C 53.8 °F /  12.1 °C 29.7 in /  1007.0 hPa West 1.2 mph /  1.9 km/h 1.2 mph /  1.9 km/h 38 % 0 in /  0.0 mm
21:20 81.5 °F /  27.5 °C 54.1 °F /  12.3 °C 29.7 in /  1007.0 hPa WSW 3.3 mph /  5.3 km/h 3.3 mph /  5.3 km/h 39 % 0 in /  0.0 mm
21:21 81.5 °F /  27.5 °C 54.1 °F /  12.3 °C 29.7 in /  1007.0 hPa WSW 4.6 mph /  7.4 km/h 4.6 mph /  7.4 km/h 39 % 0 in /  0.0 mm
21:26 81.1 °F /  27.3 °C 54.5 °F /  12.5 °C 29.7 in /  1007.0 hPa SW 3.1 mph /  5.0 km/h 3.1 mph /  5.0 km/h 40 % 0 in /  0.0 mm
21:31 80.8 °F /  27.1 °C 54.9 °F /  12.7 °C 29.7 in /  1007.0 hPa SE 1.2 mph /  1.9 km/h 1.2 mph /  1.9 km/h 41 % 0 in /  0.0 mm
21:36 80.4 °F /  26.9 °C 55.9 °F /  13.3 °C 29.7 in /  1007.0 hPa SW 1.2 mph /  1.9 km/h 1.2 mph /  1.9 km/h 43 % 0 in /  0.0 mm
21:41 80.2 °F /  26.8 °C 55.8 °F /  13.2 °C 29.7 in /  1007.0 hPa WSW 1.4 mph /  2.3 km/h   43 % 0 in /  0.0 mm
21:46 80.1 °F /  26.7 °C 55.6 °F /  13.1 °C 29.8 in /  1008.0 hPa SW 4.6 mph /  7.4 km/h 4.6 mph /  7.4 km/h 43 % 0 in /  0.0 mm
21:51 79.7 °F /  26.5 °C 55.9 °F /  13.3 °C 29.8 in /  1008.0 hPa SW 2.9 mph /  4.7 km/h 2.9 mph /  4.7 km/h 44 % 0 in /  0.0 mm
21:56 79.5 °F /  26.4 °C 55.8 °F /  13.2 °C 29.8 in /  1008.0 hPa SW 1.2 mph /  1.9 km/h 1.2 mph /  1.9 km/h 44 % 0 in /  0.0 mm
22:01 79.3 °F /  26.3 °C 56.1 °F /  13.4 °C 29.8 in /  1008.0 hPa WSW 1.2 mph /  1.9 km/h 1.2 mph /  1.9 km/h 45 % 0 in /  0.0 mm
22:06 79 °F /  26.1 °C 56.5 °F /  13.6 °C 29.8 in /  1008.0 hPa Calm     46 % 0 in /  0.0 mm
22:11 78.8 °F /  26.0 °C 56.3 °F /  13.5 °C 29.8 in /  1008.0 hPa Calm     46 % 0 in /  0.0 mm
22:16 78.6 °F /  25.9 °C 56.7 °F /  13.7 °C 29.8 in /  1008.0 hPa South 4.6 mph /  7.4 km/h 4.6 mph /  7.4 km/h 47 % 0 in /  0.0 mm
22:21 78.4 °F /  25.8 °C 56.5 °F /  13.6 °C 29.8 in /  1008.0 hPa SW 2.3 mph /  3.7 km/h 2.3 mph /  3.7 km/h 47 % 0 in /  0.0 mm
22:26 78.3 °F /  25.7 °C 56.5 °F /  13.6 °C 29.8 in /  1008.0 hPa WSW 2.3 mph /  3.7 km/h 2.3 mph /  3.7 km/h 47 % 0 in /  0.0 mm
22:31 78.1 °F /  25.6 °C 56.8 °F /  13.8 °C 29.8 in /  1008.0 hPa WSW 2.3 mph /  3.7 km/h 2.3 mph /  3.7 km/h 48 % 0 in /  0.0 mm
22:36 77.9 °F /  25.5 °C 56.7 °F /  13.7 °C 29.8 in /  1008.0 hPa SW 1.4 mph /  2.3 km/h 1.6 mph /  2.6 km/h 48 % 0 in /  0.0 mm
22:41 77.9 °F /  25.5 °C 57.2 °F /  14.0 °C 29.8 in /  1008.0 hPa WSW 2.4 mph /  3.9 km/h 2.4 mph /  3.9 km/h 49 % 0 in /  0.0 mm
22:46 77.7 °F /  25.4 °C 57 °F /  13.9 °C 29.8 in /  1008.0 hPa SW 2.3 mph /  3.7 km/h 2.3 mph /  3.7 km/h 49 % 0 in /  0.0 mm
22:50 71.6 °F /  22.0 °C 61 °F /  16.1 °C 29.8 in /  1008.0 hPa NE 3 mph /  4.8 km/h 3 mph /  4.8 km/h 69 % 0 in /  0.0 mm
22:51 77.5 °F /  25.3 °C 57.4 °F /  14.1 °C 29.8 in /  1008.0 hPa West 2.3 mph /  3.7 km/h 2.3 mph /  3.7 km/h 50 % 0 in /  0.0 mm
22:56 77.5 °F /  25.3 °C 57.4 °F /  14.1 °C 29.8 in /  1008.0 hPa WSW 2.3 mph /  3.7 km/h 2.3 mph /  3.7 km/h 50 % 0 in /  0.0 mm
23:00 71.4 °F /  21.9 °C 61.2 °F /  16.2 °C 29.8 in /  1008.0 hPa NE 2 mph /  3.2 km/h 2 mph /  3.2 km/h 70 % 0 in /  0.0 mm
23:01 77.4 °F /  25.2 °C 57.4 °F /  14.1 °C 29.8 in /  1008.0 hPa WNW 3.5 mph /  5.6 km/h 3.5 mph /  5.6 km/h 50 % 0 in /  0.0 mm
23:06 77.2 °F /  25.1 °C 57.7 °F /  14.3 °C 29.8 in /  1008.0 hPa WSW 2.9 mph /  4.7 km/h 2.9 mph /  4.7 km/h 51 % 0 in /  0.0 mm
23:10 71.2 °F /  21.8 °C 61 °F /  16.1 °C 29.8 in /  1008.0 hPa Calm   2 mph /  3.2 km/h 70 % 0 in /  0.0 mm
23:11 77 °F /  25.0 °C 57.9 °F /  14.4 °C 29.8 in /  1008.0 hPa WNW 2.3 mph /  3.7 km/h 2.3 mph /  3.7 km/h 52 % 0 in /  0.0 mm
23:16 77 °F /  25.0 °C 57.9 °F /  14.4 °C 29.8 in /  1008.0 hPa West 2.3 mph /  3.7 km/h 2.3 mph /  3.7 km/h 52 % 0 in /  0.0 mm
23:20 71.1 °F /  21.7 °C 60.8 °F /  16.0 °C 29.7 in /  1007.0 hPa Calm   2 mph /  3.2 km/h 70 % 0 in /  0.0 mm
23:21 76.8 °F /  24.9 °C 58.8 °F /  14.9 °C 29.8 in /  1008.0 hPa WSW 3.5 mph /  5.6 km/h 3.5 mph /  5.6 km/h 54 % 0 in /  0.0 mm
23:26 76.6 °F /  24.8 °C 58.6 °F /  14.8 °C 29.8 in /  1008.0 hPa West 2.3 mph /  3.7 km/h 2.3 mph /  3.7 km/h 54 % 0 in /  0.0 mm
23:30 70.9 °F /  21.6 °C 61 °F /  16.1 °C 29.7 in /  1007.0 hPa Calm   1 mph /  1.6 km/h 71 % 0 in /  0.0 mm
23:31 76.6 °F /  24.8 °C 59.4 °F /  15.2 °C 29.8 in /  1008.0 hPa WSW 2.4 mph /  3.9 km/h 2.4 mph /  3.9 km/h 55 % 0 in /  0.0 mm
23:36 76.5 °F /  24.7 °C 59.2 °F /  15.1 °C 29.8 in /  1008.0 hPa WNW 2.3 mph /  3.7 km/h 2.3 mph /  3.7 km/h 55 % 0 in /  0.0 mm
23:40 70.5 °F /  21.4 °C 60.6 °F /  15.9 °C 29.8 in /  1008.0 hPa NE 1 mph /  1.6 km/h 2 mph /  3.2 km/h 71 % 0 in /  0.0 mm
23:41 76.3 °F /  24.6 °C 58.8 °F /  14.9 °C 29.8 in /  1008.0 hPa WSW 3.5 mph /  5.6 km/h 3.5 mph /  5.6 km/h 55 % 0 in /  0.0 mm
23:46 76.3 °F /  24.6 °C 59.4 °F /  15.2 °C 29.8 in /  1008.0 hPa West 2.3 mph /  3.7 km/h 2.4 mph /  3.9 km/h 56 % 0 in /  0.0 mm
23:50 70.3 °F /  21.3 °C 60.4 °F /  15.8 °C 29.8 in /  1008.0 hPa Calm   1 mph /  1.6 km/h 71 % 0 in /  0.0 mm
23:51 76.1 °F /  24.5 °C 59.4 °F /  15.2 °C 29.8 in /  1008.0 hPa West 2.3 mph /  3.7 km/h 2.3 mph /  3.7 km/h 56 % 0 in /  0.0 mm
23:56 76.1 °F /  24.5 °C 59.4 °F /  15.2 °C 29.8 in /  1008.0 hPa WSW 3.5 mph /  5.6 km/h 3.5 mph /  5.6 km/h 56 % 0 in /  0.0 mm
Meteo Sesrovires
Elogis d' Weather Underground - 3.5 mb

Guio original per  Jim McMurry - jmcmurry@mwt.net Adaptat per a la plantilla per  Wim van der Kuil - Leuven-Template.eu

Trobareu la nostra informacio del temps tambe a:

Weather Underground

AWEKAS